Latest Weather Observations for Point Perpendicular

IDN60801

Issued at 11:43 pm EST Friday 16 April 2021 (issued every 10 minutes, with the page automatically refreshed every 10 minutes)

About weather observations | Map of weather stations | Latest weather observations for NSW | Other Formats
Station Details ID: 068151 Name: POINT PERPENDICULAR AWS Lat: -35.09 Lon: 150.80 Height: 85.0 m
Data from the previous 72 hours. | See also: Recent months at Point Perpendicular
Date/Time
EST
Temp
°C
App
Temp
°C
Dew
Point
°C
Rel
Hum
%
Delta-T
°C
Wind Press
QNH
hPa
Press
MSL
hPa
Rain since
9am
mm
Dir  Spd
km/h
Gust
km/h
Spd
kts
Gust
kts
16/11:30pm 16.8 15.4 9.0 60 4.0 SSE 6 9 3 5 1023.9 1023.7 0.0
16/11:00pm 17.0 15.6 8.7 58 4.3 SSE 6 9 3 5 1024.2 1024.0 0.0
16/10:30pm 17.0 15.5 8.4 57 4.4 SE 6 9 3 5 1024.6 1024.4 0.0
16/10:00pm 17.2 15.6 8.6 57 4.4 SSE 7 11 4 6 1024.7 1024.5 0.0
16/09:30pm 17.1 15.7 8.8 58 4.3 S 6 9 3 5 1024.5 1024.3 0.0
16/09:00pm 17.0 14.9 8.4 57 4.4 SSE 9 15 5 8 1024.3 1024.1 0.0
16/08:30pm 17.0 15.0 8.7 58 4.3 SSE 9 13 5 7 1024.4 1024.2 0.0
16/08:00pm 16.9 15.2 8.3 57 4.4 SSE 7 11 4 6 1024.2 1024.0 0.0
16/07:30pm 16.6 13.7 8.1 57 4.3 SSE 13 17 7 9 1023.9 1023.7 0.0
16/07:00pm 16.9 14.9 8.8 59 4.2 SSE 9 15 5 8 1024.0 1023.8 0.0
16/06:30pm 16.8 14.4 8.8 59 4.1 SSE 11 19 6 10 1023.7 1023.5 0.0
16/06:00pm 16.7 14.3 8.7 59 4.1 SSE 11 17 6 9 1023.0 1022.9 0.0
16/05:30pm 16.7 13.5 8.4 58 4.2 SSE 15 24 8 13 1022.7 1022.6 0.0
16/05:00pm 16.7 13.2 8.9 60 4.0 S 17 24 9 13 1022.3 1022.1 0.0
16/04:30pm 16.7 13.6 8.9 60 4.0 SSE 15 24 8 13 1022.3 1022.1 0.0
16/04:00pm 16.9 13.3 8.3 57 4.4 SSE 17 24 9 13 1022.3 1022.1 0.0
16/03:30pm 17.4 14.3 8.8 57 4.5 SSE 15 24 8 13 1021.9 1021.7 0.0
16/03:00pm 17.0 13.4 8.2 56 4.5 S 17 24 9 13 1021.7 1021.5 0.0
16/02:30pm 17.8 13.8 8.9 56 4.6 S 20 30 11 16 1021.5 1021.3 0.0
16/02:00pm 17.6 13.1 8.5 55 4.7 S 22 33 12 18 1021.3 1021.1 0.0
16/01:30pm 17.4 13.0 9.1 58 4.3 S 22 33 12 18 1021.2 1021.0 0.0
16/01:00pm 17.7 13.5 9.8 60 4.2 S 22 33 12 18 1021.5 1021.3 0.0
16/12:30pm 17.4 12.5 8.3 55 4.7 SSW 24 33 13 18 1021.7 1021.5 0.0
16/12:00pm 17.1 11.9 8.8 58 4.3 SSW 26 35 14 19 1021.9 1021.7 0.0
16/11:30am 17.1 12.3 9.0 59 4.2 SSW 24 35 13 19 1022.0 1021.8 0.0
16/11:00am 17.0 12.3 9.4 61 4.0 SSW 24 37 13 20 1021.6 1021.4 0.0
16/10:30am 16.7 12.2 9.9 64 3.6 SSW 24 37 13 20 1021.6 1021.4 0.0
16/10:00am 16.5 11.9 9.7 64 3.6 SSW 24 39 13 21 1021.4 1021.2 0.0
16/09:30am 16.9 12.0 9.8 63 3.7 SSW 26 41 14 22 1021.3 1021.1 0.0
16/09:00am 17.1 12.5 9.8 62 3.8 SSW 24 41 13 22 1020.9 1020.7 0.0
16/08:30am 17.0 12.6 10.4 65 3.5 S 24 35 13 19 1020.3 1020.1 0.0
16/08:00am 17.4 15.8 11.4 68 3.3 SW 11 26 6 14 1019.9 1019.7 0.0
16/07:30am 15.9 14.3 8.2 60 3.9 W 6 9 3 5 1020.0 1019.8 0.0
16/07:00am 15.1 14.1 8.8 66 3.2 W 4 7 2 4 1019.5 1019.3 0.0
16/06:30am 14.9 13.7 8.2 64 3.4 W 4 6 2 3 1019.0 1018.8 0.0
16/06:00am 15.1 13.9 8.1 63 3.5 W 4 6 2 3 1018.4 1018.2 0.0
16/05:30am 14.7 13.0 7.7 63 3.5 W 6 7 3 4 1017.9 1017.7 0.0
16/05:00am 15.3 13.7 7.8 61 3.8 W 6 7 3 4 1017.5 1017.3 0.0
16/04:30am 15.5 13.9 7.8 60 3.9 W 6 11 3 6 1017.2 1017.0 0.0
16/04:00am 15.7 14.3 7.2 57 4.2 W 4 7 2 4 1016.8 1016.6 0.0
16/03:30am 16.0 14.2 7.2 56 4.4 W 6 9 3 5 1016.6 1016.4 0.0
16/03:00am 16.0 14.3 7.7 58 4.2 W 6 9 3 5 1016.2 1016.0 0.0
16/02:30am 16.3 14.7 8.0 58 4.2 W 6 9 3 5 1016.0 1015.8 0.0
16/02:00am 16.6 15.1 8.3 58 4.2 W 6 11 3 6 1016.1 1015.9 0.0
16/01:30am 16.9 15.3 7.8 55 4.6 W 6 11 3 6 1015.9 1015.7 0.0
16/01:00am 17.0 15.3 8.2 56 4.5 WNW 7 13 4 7 1016.0 1015.8 0.0
16/12:30am 17.2 15.1 8.4 56 4.5 WNW 9 17 5 9 1015.7 1015.5 0.0
16/12:00am 17.5 15.8 8.4 55 4.7 WNW 7 13 4 7 1015.3 1015.1 0.0
 
Date/Time
EST
Temp
°C
App
Temp
°C
Dew
Point
°C
Rel
Hum
%
Delta-T
°C
Wind Press
QNH
hPa
Press
MSL
hPa
Rain since
9am
mm
Dir  Spd
km/h
Gust
km/h
Spd
kts
Gust
kts
15/11:30pm 17.9 16.4 9.0 56 4.6 W 7 13 4 7 1015.2 1015.0 0.0
15/11:00pm 17.9 16.4 8.5 54 4.9 WNW 6 13 3 7 1015.2 1015.0 0.0
15/10:30pm 18.1 16.9 8.1 52 5.1 W 4 9 2 5 1015.0 1014.8 0.0
15/10:00pm 18.1 15.8 7.5 50 5.4 WNW 9 17 5 9 1014.9 1014.7 0.0
15/09:30pm 18.2 15.2 7.6 50 5.4 WNW 13 19 7 10 1014.5 1014.3 0.0
15/09:00pm 18.7 16.2 6.5 45 6.1 WNW 9 17 5 9 1014.1 1013.9 0.0
15/08:30pm 19.1 16.2 6.6 44 6.3 WNW 11 19 6 10 1013.7 1013.5 0.0
15/08:00pm 19.3 16.1 6.8 44 6.3 NW 13 19 7 10 1013.6 1013.4 0.0
15/07:30pm 19.7 16.3 6.1 41 6.8 NW 13 20 7 11 1013.5 1013.3 0.0
15/07:00pm 19.9 17.0 6.6 42 6.7 NW 11 19 6 10 1013.3 1013.1 0.0
15/06:30pm 20.3 17.6 5.5 38 7.3 WNW 9 15 5 8 1013.1 1012.9 0.0
15/06:00pm 20.3 18.1 7.7 44 6.5 WNW 9 19 5 10 1012.8 1012.6 0.0
15/05:30pm 20.6 19.0 7.9 44 6.6 W 6 7 3 4 1012.8 1012.6 0.0
15/05:00pm 19.5 19.5 11.0 58 4.7 SE 2 6 1 3 1012.3 1012.0 0.0
15/04:30pm 19.9 18.6 11.4 58 4.7 ENE 9 11 5 6 1012.2 1011.9 0.0
15/04:00pm 21.1 19.4 10.0 49 6.0 NE 9 13 5 7 1012.0 1011.7 0.0
15/03:30pm 21.0 18.9 9.9 49 6.0 ENE 11 15 6 8 1012.1 1011.8 0.0
15/03:00pm 21.4 19.3 9.9 48 6.2 ENE 11 15 6 8 1012.3 1012.0 0.0
15/02:30pm 21.9 19.9 10.1 47 6.4 E 11 15 6 8 1012.3 1012.0 0.0
15/02:00pm 21.8 20.1 11.2 51 5.9 ESE 11 17 6 9 1012.3 1012.0 0.0
15/01:30pm 21.2 19.6 10.1 49 6.0 SE 9 15 5 8 1012.4 1012.2 0.0
15/01:00pm 21.0 20.4 8.9 46 6.4 WSW 2 9 1 5 1012.8 1012.6 0.0
15/12:30pm 20.9 19.0 10.4 51 5.7 SSW 11 19 6 10 1013.3 1013.1 0.0
15/12:00pm 21.2 20.3 10.7 51 5.8 W 6 13 3 7 1013.9 1013.7 0.0
15/11:30am 20.6 18.8 7.2 42 6.9 WSW 6 13 3 7 1014.3 1014.1 0.0
15/11:00am 20.3 18.6 8.3 46 6.3 SW 7 13 4 7 1014.6 1014.4 0.0
15/10:30am 19.8 18.0 7.2 44 6.4 W 6 13 3 7 1015.0 1014.8 0.0
15/10:00am 19.6 17.9 7.4 45 6.2 WNW 6 13 3 7 1014.9 1014.7 0.0
15/09:30am 18.8 16.7 8.2 50 5.5 NW 9 15 5 8 1014.9 1014.7 0.0
15/09:00am 17.8 15.4 8.6 55 4.8 WNW 11 19 6 10 1015.2 1015.0 0.0
15/08:30am 17.4 15.1 9.1 58 4.3 WNW 11 20 6 11 1015.2 1015.0 0.0
15/08:00am 16.6 14.6 8.8 60 4.0 WNW 9 17 5 9 1015.1 1014.9 0.0
15/07:30am 15.8 13.8 8.8 63 3.6 WNW 9 17 5 9 1014.8 1014.6 0.0
15/07:00am 15.3 13.3 8.8 65 3.3 WNW 9 15 5 8 1014.7 1014.5 0.0
15/06:30am 15.2 12.8 8.7 65 3.3 WNW 11 15 6 8 1014.5 1014.3 0.0
15/06:00am 15.5 13.0 8.3 62 3.6 WNW 11 17 6 9 1014.4 1014.2 0.0
15/05:30am 15.8 13.4 8.5 62 3.7 WNW 11 17 6 9 1014.3 1014.1 0.0
15/05:00am 15.7 12.9 8.4 62 3.7 NW 13 17 7 9 1014.1 1013.9 0.0
15/04:30am 16.1 14.0 8.3 60 4.0 NW 9 13 5 7 1014.0 1013.8 0.0
15/04:00am 16.4 14.3 8.4 59 4.1 WNW 9 15 5 8 1013.8 1013.6 0.0
15/03:30am 17.1 16.0 8.5 57 4.4 WNW 4 6 2 3 1013.8 1013.6 0.0
15/03:00am 17.3 16.2 8.4 56 4.6 WNW 4 6 2 3 1013.8 1013.6 0.0
15/02:30am 17.5 15.9 8.1 54 4.8 W 6 11 3 6 1013.8 1013.6 0.0
15/02:00am 18.3 16.6 8.3 52 5.2 W 7 15 4 8 1013.9 1013.7 0.0
15/01:30am 19.0 17.3 8.4 50 5.5 W 7 19 4 10 1013.8 1013.6 0.0
15/01:00am 19.0 17.4 8.6 51 5.4 WSW 7 13 4 7 1014.2 1014.0 0.0
15/12:30am 19.5 17.9 8.8 50 5.6 W 7 17 4 9 1014.0 1013.8 0.0
15/12:00am 20.0 18.1 7.7 45 6.3 W 7 17 4 9 1013.7 1013.5 0.0
 
Date/Time
EST
Temp
°C
App
Temp
°C
Dew
Point
°C
Rel
Hum
%
Delta-T
°C
Wind Press
QNH
hPa
Press
MSL
hPa
Rain since
9am
mm
Dir  Spd
km/h
Gust
km/h
Spd
kts
Gust
kts
14/11:30pm 20.2 18.2 7.2 43 6.6 W 7 13 4 7 1013.7 1013.5 0.0
14/11:00pm 20.8 18.7 6.0 38 7.4 W 6 19 3 10 1013.4 1013.2 0.0
14/10:30pm 20.1 18.5 6.5 41 6.9 WSW 4 7 2 4 1013.8 1013.6 0.0
14/10:00pm 20.0 18.5 4.9 37 7.4 WNW 2 4 1 2 1013.7 1013.5 0.0
14/09:30pm 18.5 17.4 6.7 46 5.9 SE 2 6 1 3 1013.7 1013.5 0.0
14/09:00pm 19.9 17.7 7.9 46 6.2 WNW 9 17 5 9 1013.3 1013.1 0.0
14/08:30pm 20.9 19.5 5.7 37 7.6 W 2 6 1 3 1013.5 1013.3 0.0
14/08:00pm 20.9 16.0 5.3 36 7.7 NW 20 24 11 13 1012.8 1012.6 0.0
14/07:30pm 21.3 19.1 6.4 38 7.6 WNW 7 13 4 7 1012.8 1012.6 0.0
14/07:00pm 21.7 19.5 6.0 36 7.9 WNW 7 20 4 11 1012.7 1012.5 0.0
14/06:30pm 22.1 19.3 5.1 33 8.5 WNW 9 22 5 12 1012.6 1012.4 0.0
14/06:00pm 22.3 19.8 4.8 32 8.7 NW 7 11 4 6 1012.3 1012.0 0.0
14/05:30pm 22.4 20.0 4.5 31 8.8 NW 6 13 3 7 1011.8 1011.5 0.0
14/05:00pm 22.7 19.5 5.2 32 8.8 NW 11 15 6 8 1011.6 1011.3 0.0
14/04:30pm 23.4 18.5 3.9 28 9.6 NW 19 28 10 15 1011.0 1010.8 0.0
14/04:00pm 23.5 20.9 4.0 28 9.6 WNW 7 15 4 8 1011.2 1010.9 0.0
14/03:30pm 23.8 21.4 5.2 30 9.4 WNW 7 22 4 12 1011.2 1010.9 0.0
14/03:00pm 24.4 21.7 7.5 34 8.9 WNW 11 24 6 13 1011.0 1010.8 0.0
14/02:30pm 23.9 21.7 9.5 40 7.9 N 11 17 6 9 1011.2 1010.9 0.0
14/02:00pm 23.9 21.0 10.9 44 7.3 N 17 26 9 14 1011.4 1011.1 0.0
14/01:30pm 24.2 21.7 12.2 47 6.9 N 17 24 9 13 1011.2 1010.9 0.0
14/01:00pm 24.3 21.1 9.8 40 8.0 NNE 17 24 9 13 1011.5 1011.2 0.0
14/12:30pm 22.1 19.3 8.6 42 7.2 N 13 17 7 9 1012.1 1011.8 0.0
14/12:00pm 21.8 18.5 6.5 37 7.8 NW 13 20 7 11 1012.5 1012.3 0.0
14/11:30am 23.5 20.1 5.9 32 9.0 NNW 13 24 7 13 1013.0 1012.8 0.0
14/11:00am 22.9 20.6 5.8 33 8.7 NW 7 19 4 10 1013.4 1013.2 0.0
14/10:30am 23.1 20.0 7.2 36 8.3 NW 13 20 7 11 1013.5 1013.3 0.0
14/10:00am 20.9 18.6 7.5 42 6.9 NNW 9 15 5 8 1013.7 1013.5 0.0
14/09:30am 20.2 17.8 7.2 43 6.6 N 9 11 5 6 1013.9 1013.7 0.0
14/09:00am 20.0 16.4 4.9 37 7.4 NNW 13 19 7 10 1014.0 1013.8 0.0
14/08:30am 19.3 15.3 5.0 39 7.0 NNW 15 20 8 11 1013.9 1013.7 0.0
14/08:00am 19.4 12.9 4.7 38 7.1 NW 28 39 15 21 1013.6 1013.4 0.0
14/07:30am 19.2 12.6 4.2 37 7.2 NW 28 43 15 23 1013.1 1012.9 0.0
14/07:27am 19.3 13.5 4.6 38 7.1 NW 24 43 13 23 1013.1 1012.9 0.0
14/07:00am 18.9 15.7 5.0 40 6.8 NNW 11 19 6 10 1013.1 1012.9 0.0
14/06:30am 18.5 14.5 4.7 40 6.6 NNW 15 22 8 12 1013.1 1012.9 0.0
14/06:00am 18.4 13.6 4.6 40 6.6 NNW 19 24 10 13 1012.7 1012.5 0.0
14/05:30am 18.4 13.9 4.2 39 6.8 NNW 17 24 9 13 1012.9 1012.7 0.0
14/05:00am 18.1 13.7 4.7 41 6.4 NNW 17 24 9 13 1012.9 1012.7 0.0
14/04:30am 18.5 14.2 5.4 42 6.4 NNW 17 26 9 14 1013.1 1012.9 0.0
14/04:00am 18.6 14.2 4.8 40 6.7 NNW 17 24 9 13 1013.2 1013.0 0.0
14/03:30am 18.6 14.3 5.1 41 6.6 NNW 17 22 9 12 1013.4 1013.2 0.0
14/03:00am 18.4 14.8 6.9 47 5.8 NNW 15 22 8 12 1013.8 1013.6 0.0
14/02:30am 17.6 14.7 9.8 60 4.1 N 15 19 8 10 1014.1 1013.9 0.0
14/02:00am 17.3 14.9 11.3 68 3.3 N 15 19 8 10 1014.5 1014.3 0.0
14/01:30am 17.2 14.4 11.2 68 3.3 N 17 20 9 11 1014.8 1014.6 0.0
14/01:00am 17.0 14.7 11.7 71 2.9 N 15 19 8 10 1015.3 1015.1 0.0
14/12:30am 16.2 14.4 12.0 76 2.3 N 13 17 7 9 1015.5 1015.3 0.0
14/12:00am 16.8 13.9 12.3 75 2.5 N 19 28 10 15 1015.7 1015.5 0.0

Other formats

Comma delimited format used in spreadsheet applications
http://www.bom.gov.au/fwo/IDN60801/IDN60801.95940.axf

JavaScript Object Notation format (JSON) in row-major order
http://www.bom.gov.au/fwo/IDN60801/IDN60801.95940.json

Data quality

Most of these data are generated automatically and are frequently updated. Quality checks on data are not normally performed. It is possible for incorrect values to appear. Refer to information at About Latest Weather Observations and please check the disclaimer before using these data.